Etusivu
METAR-TAF:

METAR-TAF

Lentoasemat :

Menomonie Municipal Airport (Score Field)

Menomonie, Wisconsin, Yhdysvallat

Leveyspiiri: 44-53-32N, Pituuspiiri: 091-52-04W, korkeus merenpinnasta: 273 m

Tämänhetkinen sää

Tämä raportti tehtiin 12 minuuttia sitten, kello 10.35 UTC
Tuuli 8 kn lännestä/luoteesta
Lämpötila -9°C
Kosteus 92%
Ilmanpaine 1020 hPa
Näkyvyys: 16.1 km
Pilvistä 900 ft:n korkeudessa

METAR: KLUM 281035Z AUTO 29008KT 10SM OVC009 M09/M10 A3012 RMK AO2 T10901105

Aika: 04:47 (10:47 UTC)


TAF: puuttuu

Säähavainnot ja -ennusteet yli 4000 lentoasemalta (METAR- ja TAF-raportit).

Käytössä olevat sääasemat on merkitty karttaan keltaisilla ja punaisilla pisteillä.

Aseta hiiri pisteen päälle nähdäksesi sääaseman nimen.

Klikkaa sitten nähdäksesi säähavainnot ja -ennusteet.

Kartan vaihtaminen: klikkaa mustalla rastilla varustettuja vihreitä pisteitä, niin voit zoomata sisään; viivalla varustettua vihreää pistettä, niin voit zoomata ulos tai vihreitä nuolia, niin pääset viereisille kartoille.


METAR-TAF: